createdAt,value
2023-07-03T00:00:13.556Z,99577.00
2023-07-03T00:05:36.785Z,99577.60
2023-07-03T00:10:40.043Z,99576.20
2023-07-03T00:15:43.312Z,99578.60
2023-07-03T00:20:47.053Z,99581.00
2023-07-03T00:25:51.351Z,99583.60
2023-07-03T00:30:54.917Z,99583.40
2023-07-03T00:35:58.403Z,99587.60
2023-07-03T00:41:01.632Z,99590.60
2023-07-03T00:46:04.832Z,99597.60
2023-07-03T00:51:10.076Z,99599.20
2023-07-03T00:56:13.583Z,99597.40
2023-07-03T01:01:36.901Z,99601.20
2023-07-03T01:06:48.578Z,99598.00
2023-07-03T01:11:52.413Z,99593.00
2023-07-03T01:16:57.913Z,99597.80
2023-07-03T01:22:17.356Z,99592.80
2023-07-03T01:27:24.294Z,99590.20
2023-07-03T01:32:31.270Z,99591.40
2023-07-03T01:37:38.768Z,99588.40
2023-07-03T01:42:42.642Z,99586.60
2023-07-03T01:47:46.175Z,99586.00
2023-07-03T01:52:56.631Z,99583.60
2023-07-03T01:58:22.882Z,99585.60
2023-07-03T02:03:32.580Z,99579.60
2023-07-03T02:08:36.827Z,99585.00
2023-07-03T02:13:39.920Z,99584.80
2023-07-03T02:18:49.580Z,99583.60
2023-07-03T02:23:52.798Z,99576.40
2023-07-03T02:28:56.120Z,99577.60
2023-07-03T02:33:59.419Z,99584.00
2023-07-03T02:39:03.230Z,99578.60
2023-07-03T02:44:06.545Z,99581.40
2023-07-03T02:49:11.049Z,99576.00
2023-07-03T02:54:14.294Z,99573.80
2023-07-03T02:59:17.622Z,99576.80
2023-07-03T03:04:20.940Z,99578.40
2023-07-03T03:09:24.737Z,99578.40
2023-07-03T03:14:28.154Z,99579.80
2023-07-03T03:19:31.597Z,99574.60
2023-07-03T03:24:35.600Z,99573.20
2023-07-03T03:29:39.850Z,99574.00
2023-07-03T03:34:43.150Z,99571.00
2023-07-03T03:39:46.483Z,99578.40
2023-07-03T03:44:49.676Z,99578.40
2023-07-03T03:49:54.638Z,99570.20
2023-07-03T03:54:58.027Z,99578.00
2023-07-03T04:00:01.370Z,99578.00
2023-07-03T04:05:05.010Z,99583.60
2023-07-03T04:10:09.633Z,99580.40
2023-07-03T04:15:12.839Z,99584.20
2023-07-03T04:20:16.272Z,99589.80
2023-07-03T04:25:19.527Z,99593.00
2023-07-03T04:30:22.862Z,99594.00
2023-07-03T04:35:26.263Z,99593.40
2023-07-03T04:40:31.077Z,99588.20
2023-07-03T04:45:42.063Z,99590.80
2023-07-03T04:50:50.936Z,99588.20
2023-07-03T04:55:54.916Z,99588.80
2023-07-03T05:00:58.775Z,99597.60
2023-07-03T05:06:02.098Z,99595.80
2023-07-03T05:11:05.302Z,99596.00
2023-07-03T05:16:08.541Z,99595.60
2023-07-03T05:21:12.854Z,99603.00
2023-07-03T05:26:16.069Z,99608.60
2023-07-03T05:31:23.831Z,99611.00
2023-07-03T05:36:27.305Z,99614.80
2023-07-03T05:41:30.562Z,99610.80
2023-07-03T05:46:34.025Z,99620.80
2023-07-03T05:51:37.464Z,99618.20
2023-07-03T05:56:40.845Z,99622.00
2023-07-03T06:01:46.661Z,99630.80
2023-07-03T06:06:57.142Z,99631.20
2023-07-03T06:12:00.927Z,99641.40
2023-07-03T06:17:04.460Z,99643.60
2023-07-03T06:22:07.695Z,99647.80
2023-07-03T06:27:11.152Z,99651.00
2023-07-03T06:32:14.670Z,99660.20
2023-07-03T06:37:18.187Z,99658.60
2023-07-03T06:42:21.598Z,99650.20
2023-07-03T06:47:24.938Z,99637.00
2023-07-03T06:52:28.327Z,99646.40
2023-07-03T06:57:31.880Z,99639.60
2023-07-03T07:02:35.662Z,99638.20
2023-07-03T07:07:39.399Z,99627.00
2023-07-03T07:12:42.591Z,99624.60
2023-07-03T07:17:51.960Z,99619.40
2023-07-03T07:22:56.184Z,99623.20
2023-07-03T07:27:59.596Z,99628.40
2023-07-03T07:33:02.963Z,99634.20
2023-07-03T07:38:06.635Z,99627.20
2023-07-03T07:43:10.273Z,99638.60
2023-07-03T07:48:13.762Z,99634.20
2023-07-03T07:53:17.190Z,99637.40
2023-07-03T07:58:20.586Z,99637.80
2023-07-03T08:03:23.940Z,99638.40
2023-07-03T08:08:28.552Z,99643.00
2023-07-03T08:13:33.837Z,99640.40
2023-07-03T08:18:37.521Z,99651.00
2023-07-03T08:23:40.831Z,99650.80
2023-07-03T08:28:44.286Z,99651.40
2023-07-03T08:33:47.785Z,99657.60
2023-07-03T08:38:51.299Z,99657.60
2023-07-03T08:43:59.722Z,99657.00
2023-07-03T08:49:05.585Z,99665.00
2023-07-03T08:54:22.428Z,99669.80
2023-07-03T08:59:26.231Z,99676.40
2023-07-03T09:04:36.267Z,99682.40
2023-07-03T09:10:10.849Z,99686.20
2023-07-03T09:15:17.467Z,99691.60
2023-07-03T09:20:24.532Z,99701.40
2023-07-03T09:25:45.599Z,99698.00
2023-07-03T09:30:52.280Z,99704.80
2023-07-03T09:35:57.565Z,99713.20
2023-07-03T09:41:08.697Z,99712.40
2023-07-03T09:46:15.556Z,99708.40
2023-07-03T09:51:25.749Z,99714.00
2023-07-03T09:56:31.533Z,99710.80
2023-07-03T10:07:07.720Z,99716.40
2023-07-03T10:12:26.254Z,99713.40
2023-07-03T10:17:46.999Z,99718.80
2023-07-03T10:22:56.539Z,99728.60
2023-07-03T10:28:08.321Z,99715.80
2023-07-03T10:33:16.225Z,99722.20
2023-07-03T10:38:56.400Z,99720.40
2023-07-03T10:44:12.642Z,99738.40
2023-07-03T10:49:27.464Z,99738.20
2023-07-03T10:55:16.787Z,99734.00
2023-07-03T11:00:38.328Z,99728.20
2023-07-03T11:05:50.200Z,99724.80
2023-07-03T11:11:11.264Z,99721.20
2023-07-03T11:16:16.097Z,99723.60
2023-07-03T11:32:37.282Z,99725.40
2023-07-03T11:47:54.702Z,99707.40
2023-07-03T11:52:58.803Z,99713.60
2023-07-03T11:58:20.155Z,99713.00
2023-07-03T12:03:51.111Z,99706.20
2023-07-03T12:09:10.341Z,99705.40
2023-07-03T12:15:02.764Z,99708.80
2023-07-03T12:20:20.289Z,99704.80
2023-07-03T12:25:27.305Z,99697.20
2023-07-03T12:30:32.391Z,99704.60
2023-07-03T12:35:44.035Z,99707.00
2023-07-03T12:40:49.048Z,99706.20
2023-07-03T12:45:55.102Z,99700.40
2023-07-03T12:51:01.611Z,99693.80
2023-07-03T12:56:10.582Z,99683.20
2023-07-03T13:01:15.027Z,99678.20
2023-07-03T13:06:33.327Z,99672.00
2023-07-03T13:11:45.320Z,99682.00
2023-07-03T13:16:51.792Z,99680.60
2023-07-03T13:21:55.842Z,99692.80
2023-07-03T13:27:00.215Z,99685.60
2023-07-03T13:32:18.286Z,99676.40
2023-07-03T13:37:27.033Z,99678.00
2023-07-03T13:42:31.718Z,99664.00
2023-07-03T13:47:35.106Z,99661.00
2023-07-03T13:52:38.693Z,99663.80
2023-07-03T13:57:42.631Z,99667.60
2023-07-03T14:02:48.978Z,99666.40
2023-07-03T14:07:52.865Z,99671.20
2023-07-03T14:12:56.240Z,99664.40
2023-07-03T14:17:59.558Z,99661.20
2023-07-03T14:23:05.552Z,99665.00
2023-07-03T14:28:08.829Z,99664.20
2023-07-03T14:33:12.262Z,99666.40
2023-07-03T14:38:15.870Z,99667.40
2023-07-03T14:43:19.218Z,99670.40
2023-07-03T14:48:36.658Z,99673.00
2023-07-03T14:53:40.355Z,99675.00
2023-07-03T14:58:43.852Z,99669.00
2023-07-03T15:03:48.707Z,99666.00
2023-07-03T15:08:52.732Z,99662.00
2023-07-03T15:13:56.472Z,99672.40
2023-07-03T15:19:08.372Z,99671.00
2023-07-03T15:24:14.537Z,99674.00
2023-07-03T15:29:18.566Z,99676.60
2023-07-03T15:34:24.587Z,99682.00
2023-07-03T15:39:27.957Z,99678.60
2023-07-03T15:44:31.902Z,99684.80
2023-07-03T15:49:43.907Z,99682.60
2023-07-03T15:54:52.446Z,99684.60
2023-07-03T15:59:56.182Z,99689.00
2023-07-03T16:04:59.885Z,99695.40
2023-07-03T16:10:05.251Z,99694.80
2023-07-03T16:15:10.128Z,99700.60
2023-07-03T16:20:16.858Z,99707.40
2023-07-03T16:25:26.126Z,99708.80
2023-07-03T16:30:31.286Z,99708.60
2023-07-03T16:35:37.259Z,99718.00
2023-07-03T16:40:43.045Z,99721.40
2023-07-03T16:45:46.845Z,99722.40
2023-07-03T16:50:56.514Z,99725.80
2023-07-03T16:56:02.996Z,99723.60
2023-07-03T17:01:09.454Z,99722.60
2023-07-03T17:06:22.311Z,99729.20
2023-07-03T17:11:29.327Z,99733.00
2023-07-03T17:16:34.107Z,99733.80
2023-07-03T17:21:38.747Z,99738.80
2023-07-03T17:26:42.211Z,99745.40
2023-07-03T17:31:45.575Z,99744.00
2023-07-03T17:36:49.132Z,99747.80
2023-07-03T17:41:54.507Z,99750.00
2023-07-03T17:46:58.634Z,99749.80
2023-07-03T17:52:03.198Z,99749.20
2023-07-03T17:57:07.298Z,99755.40
2023-07-03T18:02:12.351Z,99763.00
2023-07-03T18:07:16.604Z,99760.60
2023-07-03T18:12:20.209Z,99762.60
2023-07-03T18:17:25.178Z,99767.40
2023-07-03T18:22:28.469Z,99770.20
2023-07-03T18:27:32.902Z,99775.60
2023-07-03T18:32:36.312Z,99781.00
2023-07-03T18:37:39.845Z,99779.40
2023-07-03T18:42:43.603Z,99776.20
2023-07-03T18:47:47.017Z,99782.00
2023-07-03T18:52:50.907Z,99781.20
2023-07-03T18:57:54.427Z,99779.60
2023-07-03T19:02:58.487Z,99782.60
2023-07-03T19:08:02.800Z,99788.60
2023-07-03T19:13:08.962Z,99793.60
2023-07-03T19:18:13.405Z,99799.00
2023-07-03T19:23:21.719Z,99797.20
2023-07-03T19:28:27.450Z,99810.40
2023-07-03T19:33:31.661Z,99802.40
2023-07-03T19:38:37.154Z,99806.80
2023-07-03T19:43:41.545Z,99810.40
2023-07-03T19:48:44.936Z,99807.80
2023-07-03T19:53:50.316Z,99805.40
2023-07-03T19:58:54.018Z,99812.60
2023-07-03T20:03:57.676Z,99819.00
2023-07-03T20:09:01.260Z,99819.80
2023-07-03T20:14:05.373Z,99817.20
2023-07-03T20:19:08.718Z,99822.60
2023-07-03T20:24:14.796Z,99830.40
2023-07-03T20:29:18.413Z,99835.80
2023-07-03T20:34:22.627Z,99834.40
2023-07-03T20:39:26.788Z,99829.80
2023-07-03T20:44:30.474Z,99830.60
2023-07-03T20:49:35.227Z,99838.00
2023-07-03T20:54:44.411Z,99845.00
2023-07-03T20:59:51.881Z,99842.80
2023-07-03T21:04:56.249Z,99853.00
2023-07-03T21:09:59.651Z,99858.80
2023-07-03T21:15:03.551Z,99868.20
2023-07-03T21:20:08.646Z,99868.20
2023-07-03T21:25:12.009Z,99868.40
2023-07-03T21:30:15.699Z,99875.80
2023-07-03T21:35:18.940Z,99877.80
2023-07-03T21:40:22.159Z,99873.60
2023-07-03T21:45:25.675Z,99873.00
2023-07-03T21:50:29.089Z,99879.80
2023-07-03T21:55:32.702Z,99879.80
2023-07-03T22:00:35.910Z,99880.00
2023-07-03T22:05:39.221Z,99881.60
2023-07-03T22:10:42.533Z,99878.80
2023-07-03T22:15:45.895Z,99876.80
2023-07-03T22:20:55.512Z,99871.20
2023-07-03T22:26:00.581Z,99873.40
2023-07-03T22:31:04.124Z,99871.60
2023-07-03T22:36:11.377Z,99872.20
2023-07-03T22:41:17.259Z,99878.40
2023-07-03T22:46:20.698Z,99875.00
2023-07-03T22:51:24.075Z,99877.00
2023-07-03T22:56:29.128Z,99874.60
2023-07-03T23:01:32.440Z,99873.20
2023-07-03T23:06:35.994Z,99876.40
2023-07-03T23:11:40.496Z,99876.40
2023-07-03T23:16:45.032Z,99881.40
2023-07-03T23:21:52.264Z,99881.40
2023-07-03T23:26:56.910Z,99883.20
2023-07-03T23:32:00.120Z,99885.60
2023-07-03T23:37:03.413Z,99885.60
2023-07-03T23:42:08.861Z,99884.60
2023-07-03T23:47:12.104Z,99889.40
2023-07-03T23:52:15.606Z,99893.40
2023-07-03T23:57:18.910Z,99903.80
